sensor_id;sensor_type;location;lat;lon;timestamp;P1;durP1;ratioP1;P2;durP2;ratioP2
27213;SDS011;14723;55.814;37.460;2022-09-16T00:02:38;14.00;;;8.48;;
27213;SDS011;14723;55.814;37.460;2022-09-16T00:05:43;16.20;;;8.53;;
27213;SDS011;14723;55.814;37.460;2022-09-16T00:08:49;15.18;;;8.32;;
27213;SDS011;14723;55.814;37.460;2022-09-16T00:11:54;14.68;;;9.63;;
27213;SDS011;14723;55.814;37.460;2022-09-16T00:14:59;16.38;;;8.98;;
27213;SDS011;14723;55.814;37.460;2022-09-16T00:18:07;20.75;;;9.35;;
27213;SDS011;14723;55.814;37.460;2022-09-16T00:21:13;12.65;;;8.80;;
27213;SDS011;14723;55.814;37.460;2022-09-16T00:24:18;15.65;;;9.45;;
27213;SDS011;14723;55.814;37.460;2022-09-16T00:27:23;14.98;;;9.50;;
27213;SDS011;14723;55.814;37.460;2022-09-16T00:30:28;18.67;;;8.93;;
27213;SDS011;14723;55.814;37.460;2022-09-16T00:33:36;16.98;;;8.60;;
27213;SDS011;14723;55.814;37.460;2022-09-16T00:36:41;15.25;;;9.23;;
27213;SDS011;14723;55.814;37.460;2022-09-16T00:39:46;18.52;;;9.52;;
27213;SDS011;14723;55.814;37.460;2022-09-16T00:42:52;17.98;;;11.02;;
27213;SDS011;14723;55.814;37.460;2022-09-16T00:45:58;19.42;;;11.15;;
27213;SDS011;14723;55.814;37.460;2022-09-16T00:49:08;19.58;;;10.68;;
27213;SDS011;14723;55.814;37.460;2022-09-16T00:52:14;17.60;;;10.60;;
27213;SDS011;14723;55.814;37.460;2022-09-16T00:55:20;20.67;;;10.25;;
27213;SDS011;14723;55.814;37.460;2022-09-16T00:58:28;20.67;;;10.40;;
27213;SDS011;14723;55.814;37.460;2022-09-16T01:01:36;18.90;;;10.77;;
27213;SDS011;14723;55.814;37.460;2022-09-16T01:04:46;15.73;;;9.45;;
27213;SDS011;14723;55.814;37.460;2022-09-16T01:07:53;16.08;;;9.95;;
27213;SDS011;14723;55.814;37.460;2022-09-16T01:10:59;17.00;;;10.35;;
27213;SDS011;14723;55.814;37.460;2022-09-16T01:14:04;17.05;;;10.23;;
27213;SDS011;14723;55.814;37.460;2022-09-16T01:17:32;20.88;;;10.00;;
27213;SDS011;14723;55.814;37.460;2022-09-16T01:24:05;27.70;;;10.35;;
27213;SDS011;14723;55.814;37.460;2022-09-16T01:30:38;19.33;;;10.73;;
27213;SDS011;14723;55.814;37.460;2022-09-16T01:33:46;18.02;;;10.23;;
27213;SDS011;14723;55.814;37.460;2022-09-16T01:36:55;15.05;;;10.60;;
27213;SDS011;14723;55.814;37.460;2022-09-16T01:40:06;16.75;;;10.45;;
27213;SDS011;14723;55.814;37.460;2022-09-16T01:46:21;17.40;;;9.93;;
27213;SDS011;14723;55.814;37.460;2022-09-16T01:49:33;21.50;;;11.35;;
27213;SDS011;14723;55.814;37.460;2022-09-16T01:52:42;19.63;;;10.50;;
27213;SDS011;14723;55.814;37.460;2022-09-16T01:55:50;14.93;;;9.63;;
27213;SDS011;14723;55.814;37.460;2022-09-16T01:58:58;16.00;;;9.45;;
27213;SDS011;14723;55.814;37.460;2022-09-16T02:02:08;19.88;;;10.32;;
27213;SDS011;14723;55.814;37.460;2022-09-16T02:05:16;20.42;;;9.95;;
27213;SDS011;14723;55.814;37.460;2022-09-16T02:08:23;13.73;;;9.77;;
27213;SDS011;14723;55.814;37.460;2022-09-16T02:11:29;17.92;;;10.43;;
27213;SDS011;14723;55.814;37.460;2022-09-16T02:14:37;18.52;;;10.32;;
27213;SDS011;14723;55.814;37.460;2022-09-16T02:20:51;16.30;;;9.75;;
27213;SDS011;14723;55.814;37.460;2022-09-16T02:23:57;17.27;;;9.85;;
27213;SDS011;14723;55.814;37.460;2022-09-16T02:27:03;15.70;;;9.50;;
27213;SDS011;14723;55.814;37.460;2022-09-16T02:30:13;17.33;;;9.32;;
27213;SDS011;14723;55.814;37.460;2022-09-16T02:33:19;19.88;;;10.50;;
27213;SDS011;14723;55.814;37.460;2022-09-16T02:36:27;18.08;;;10.35;;
27213;SDS011;14723;55.814;37.460;2022-09-16T02:39:34;17.88;;;10.35;;
27213;SDS011;14723;55.814;37.460;2022-09-16T02:42:41;18.92;;;10.25;;
27213;SDS011;14723;55.814;37.460;2022-09-16T02:45:48;15.68;;;9.80;;
27213;SDS011;14723;55.814;37.460;2022-09-16T02:48:57;18.77;;;10.23;;
27213;SDS011;14723;55.814;37.460;2022-09-16T02:52:09;17.00;;;10.27;;
27213;SDS011;14723;55.814;37.460;2022-09-16T02:55:19;15.80;;;9.60;;
27213;SDS011;14723;55.814;37.460;2022-09-16T02:58:26;15.30;;;9.45;;
27213;SDS011;14723;55.814;37.460;2022-09-16T03:01:31;16.40;;;9.13;;
27213;SDS011;14723;55.814;37.460;2022-09-16T03:04:37;16.73;;;10.55;;
27213;SDS011;14723;55.814;37.460;2022-09-16T03:07:45;16.30;;;9.85;;
27213;SDS011;14723;55.814;37.460;2022-09-16T03:10:50;17.13;;;10.40;;
27213;SDS011;14723;55.814;37.460;2022-09-16T03:14:01;17.25;;;10.23;;
27213;SDS011;14723;55.814;37.460;2022-09-16T03:17:14;21.60;;;11.02;;
27213;SDS011;14723;55.814;37.460;2022-09-16T03:20:25;15.10;;;9.43;;
27213;SDS011;14723;55.814;37.460;2022-09-16T03:23:54;16.80;;;10.00;;
27213;SDS011;14723;55.814;37.460;2022-09-16T03:27:01;15.30;;;9.52;;
27213;SDS011;14723;55.814;37.460;2022-09-16T03:30:09;19.83;;;10.85;;
27213;SDS011;14723;55.814;37.460;2022-09-16T03:33:16;17.25;;;9.85;;
27213;SDS011;14723;55.814;37.460;2022-09-16T03:36:24;16.33;;;9.52;;
27213;SDS011;14723;55.814;37.460;2022-09-16T03:39:34;18.10;;;10.83;;
27213;SDS011;14723;55.814;37.460;2022-09-16T03:42:39;17.42;;;9.90;;
27213;SDS011;14723;55.814;37.460;2022-09-16T03:45:45;18.95;;;10.88;;
27213;SDS011;14723;55.814;37.460;2022-09-16T03:48:50;16.90;;;11.05;;
27213;SDS011;14723;55.814;37.460;2022-09-16T03:51:55;22.85;;;13.07;;
27213;SDS011;14723;55.814;37.460;2022-09-16T03:55:04;17.38;;;11.15;;
27213;SDS011;14723;55.814;37.460;2022-09-16T03:58:09;17.63;;;9.98;;
27213;SDS011;14723;55.814;37.460;2022-09-16T04:01:14;19.60;;;10.50;;
27213;SDS011;14723;55.814;37.460;2022-09-16T04:04:19;26.00;;;12.48;;
27213;SDS011;14723;55.814;37.460;2022-09-16T04:07:24;19.23;;;10.68;;
27213;SDS011;14723;55.814;37.460;2022-09-16T04:10:32;16.85;;;10.27;;
27213;SDS011;14723;55.814;37.460;2022-09-16T04:13:38;17.20;;;10.60;;
27213;SDS011;14723;55.814;37.460;2022-09-16T04:16:43;15.18;;;10.02;;
27213;SDS011;14723;55.814;37.460;2022-09-16T04:19:48;16.52;;;9.60;;
27213;SDS011;14723;55.814;37.460;2022-09-16T04:22:54;16.95;;;10.88;;
27213;SDS011;14723;55.814;37.460;2022-09-16T04:26:02;18.15;;;9.90;;
27213;SDS011;14723;55.814;37.460;2022-09-16T04:29:08;17.98;;;10.45;;
27213;SDS011;14723;55.814;37.460;2022-09-16T04:32:13;30.55;;;17.88;;
27213;SDS011;14723;55.814;37.460;2022-09-16T04:35:18;26.40;;;11.73;;
27213;SDS011;14723;55.814;37.460;2022-09-16T04:38:23;17.58;;;9.90;;
27213;SDS011;14723;55.814;37.460;2022-09-16T04:41:31;21.38;;;10.77;;
27213;SDS011;14723;55.814;37.460;2022-09-16T04:44:36;24.20;;;13.80;;
27213;SDS011;14723;55.814;37.460;2022-09-16T04:47:41;15.60;;;11.05;;
27213;SDS011;14723;55.814;37.460;2022-09-16T04:50:46;17.27;;;10.57;;
27213;SDS011;14723;55.814;37.460;2022-09-16T04:53:52;18.88;;;10.48;;
27213;SDS011;14723;55.814;37.460;2022-09-16T04:57:00;15.15;;;9.73;;
27213;SDS011;14723;55.814;37.460;2022-09-16T05:00:05;15.77;;;10.37;;
27213;SDS011;14723;55.814;37.460;2022-09-16T05:03:11;14.93;;;10.10;;
27213;SDS011;14723;55.814;37.460;2022-09-16T05:06:17;19.52;;;10.40;;
27213;SDS011;14723;55.814;37.460;2022-09-16T05:09:22;16.52;;;10.70;;
27213;SDS011;14723;55.814;37.460;2022-09-16T05:12:30;17.27;;;10.85;;
27213;SDS011;14723;55.814;37.460;2022-09-16T05:15:35;16.73;;;8.70;;
27213;SDS011;14723;55.814;37.460;2022-09-16T05:18:40;17.00;;;9.88;;
27213;SDS011;14723;55.814;37.460;2022-09-16T05:21:46;17.88;;;9.80;;
27213;SDS011;14723;55.814;37.460;2022-09-16T05:24:51;15.65;;;9.52;;
27213;SDS011;14723;55.814;37.460;2022-09-16T05:27:59;16.67;;;10.10;;
27213;SDS011;14723;55.814;37.460;2022-09-16T05:31:07;18.67;;;10.43;;
27213;SDS011;14723;55.814;37.460;2022-09-16T05:34:13;15.82;;;9.55;;
27213;SDS011;14723;55.814;37.460;2022-09-16T05:37:19;18.02;;;10.13;;
27213;SDS011;14723;55.814;37.460;2022-09-16T05:40:24;17.63;;;10.10;;
27213;SDS011;14723;55.814;37.460;2022-09-16T05:43:33;16.40;;;10.18;;
27213;SDS011;14723;55.814;37.460;2022-09-16T05:49:44;24.77;;;15.23;;
27213;SDS011;14723;55.814;37.460;2022-09-16T05:52:49;16.20;;;9.95;;
27213;SDS011;14723;55.814;37.460;2022-09-16T05:55:55;14.75;;;10.38;;
27213;SDS011;14723;55.814;37.460;2022-09-16T05:59:03;14.45;;;10.45;;
27213;SDS011;14723;55.814;37.460;2022-09-16T06:02:09;13.02;;;9.85;;
27213;SDS011;14723;55.814;37.460;2022-09-16T06:05:14;14.95;;;9.75;;
27213;SDS011;14723;55.814;37.460;2022-09-16T06:08:19;19.58;;;9.93;;
27213;SDS011;14723;55.814;37.460;2022-09-16T06:11:25;23.73;;;11.75;;
27213;SDS011;14723;55.814;37.460;2022-09-16T06:14:32;15.43;;;10.30;;
27213;SDS011;14723;55.814;37.460;2022-09-16T06:17:37;17.25;;;10.80;;
27213;SDS011;14723;55.814;37.460;2022-09-16T06:20:43;19.05;;;10.05;;
27213;SDS011;14723;55.814;37.460;2022-09-16T06:23:48;18.25;;;10.43;;
27213;SDS011;14723;55.814;37.460;2022-09-16T06:26:54;16.45;;;10.07;;
27213;SDS011;14723;55.814;37.460;2022-09-16T06:30:02;18.23;;;9.85;;
27213;SDS011;14723;55.814;37.460;2022-09-16T06:33:07;22.40;;;10.27;;
27213;SDS011;14723;55.814;37.460;2022-09-16T06:36:14;17.05;;;10.25;;
27213;SDS011;14723;55.814;37.460;2022-09-16T06:39:20;18.65;;;11.40;;
27213;SDS011;14723;55.814;37.460;2022-09-16T06:42:25;20.58;;;11.32;;
27213;SDS011;14723;55.814;37.460;2022-09-16T06:45:38;17.38;;;10.40;;
27213;SDS011;14723;55.814;37.460;2022-09-16T06:48:44;22.40;;;11.23;;
27213;SDS011;14723;55.814;37.460;2022-09-16T06:51:51;19.15;;;11.15;;
27213;SDS011;14723;55.814;37.460;2022-09-16T06:54:56;18.00;;;11.02;;
27213;SDS011;14723;55.814;37.460;2022-09-16T06:58:01;18.55;;;10.18;;
27213;SDS011;14723;55.814;37.460;2022-09-16T07:01:10;26.42;;;10.93;;
27213;SDS011;14723;55.814;37.460;2022-09-16T07:04:15;18.67;;;10.85;;
27213;SDS011;14723;55.814;37.460;2022-09-16T07:07:21;20.77;;;11.82;;
27213;SDS011;14723;55.814;37.460;2022-09-16T07:10:26;24.00;;;12.70;;
27213;SDS011;14723;55.814;37.460;2022-09-16T07:13:31;20.05;;;10.68;;
27213;SDS011;14723;55.814;37.460;2022-09-16T07:16:39;21.83;;;11.60;;
27213;SDS011;14723;55.814;37.460;2022-09-16T07:19:45;17.90;;;11.65;;
27213;SDS011;14723;55.814;37.460;2022-09-16T07:22:50;18.65;;;11.10;;
27213;SDS011;14723;55.814;37.460;2022-09-16T07:25:59;24.23;;;12.57;;
27213;SDS011;14723;55.814;37.460;2022-09-16T07:29:05;18.27;;;11.90;;
27213;SDS011;14723;55.814;37.460;2022-09-16T07:32:13;21.38;;;12.27;;
27213;SDS011;14723;55.814;37.460;2022-09-16T07:35:18;19.27;;;11.52;;
27213;SDS011;14723;55.814;37.460;2022-09-16T07:38:23;19.45;;;12.18;;
27213;SDS011;14723;55.814;37.460;2022-09-16T07:41:29;18.20;;;11.68;;
27213;SDS011;14723;55.814;37.460;2022-09-16T07:44:34;29.77;;;14.48;;
27213;SDS011;14723;55.814;37.460;2022-09-16T07:47:42;29.95;;;19.35;;
27213;SDS011;14723;55.814;37.460;2022-09-16T07:50:52;19.10;;;12.57;;
27213;SDS011;14723;55.814;37.460;2022-09-16T07:53:58;26.55;;;13.90;;
27213;SDS011;14723;55.814;37.460;2022-09-16T07:57:05;21.23;;;12.63;;
27213;SDS011;14723;55.814;37.460;2022-09-16T08:00:11;21.13;;;13.35;;
27213;SDS011;14723;55.814;37.460;2022-09-16T08:03:19;21.02;;;12.88;;
27213;SDS011;14723;55.814;37.460;2022-09-16T08:06:25;20.05;;;12.27;;
27213;SDS011;14723;55.814;37.460;2022-09-16T08:09:31;23.95;;;13.32;;
27213;SDS011;14723;55.814;37.460;2022-09-16T08:12:47;23.85;;;13.90;;
27213;SDS011;14723;55.814;37.460;2022-09-16T08:15:53;27.35;;;14.23;;
27213;SDS011;14723;55.814;37.460;2022-09-16T08:19:00;26.85;;;13.43;;
27213;SDS011;14723;55.814;37.460;2022-09-16T08:22:06;23.48;;;13.35;;
27213;SDS011;14723;55.814;37.460;2022-09-16T08:25:11;20.75;;;13.25;;
27213;SDS011;14723;55.814;37.460;2022-09-16T08:28:16;20.90;;;13.00;;
27213;SDS011;14723;55.814;37.460;2022-09-16T08:31:22;21.38;;;12.90;;
27213;SDS011;14723;55.814;37.460;2022-09-16T08:34:29;25.00;;;12.75;;
27213;SDS011;14723;55.814;37.460;2022-09-16T08:37:38;21.40;;;13.05;;
27213;SDS011;14723;55.814;37.460;2022-09-16T08:40:49;20.90;;;13.65;;
27213;SDS011;14723;55.814;37.460;2022-09-16T08:43:57;25.77;;;13.25;;
27213;SDS011;14723;55.814;37.460;2022-09-16T08:47:06;23.42;;;12.77;;
27213;SDS011;14723;55.814;37.460;2022-09-16T08:50:17;21.30;;;14.30;;
27213;SDS011;14723;55.814;37.460;2022-09-16T08:53:26;22.08;;;13.45;;
27213;SDS011;14723;55.814;37.460;2022-09-16T08:56:36;18.13;;;11.52;;
27213;SDS011;14723;55.814;37.460;2022-09-16T08:59:47;17.23;;;11.68;;
27213;SDS011;14723;55.814;37.460;2022-09-16T09:02:54;22.05;;;11.70;;
27213;SDS011;14723;55.814;37.460;2022-09-16T09:06:03;19.52;;;12.65;;
27213;SDS011;14723;55.814;37.460;2022-09-16T09:09:13;24.30;;;11.93;;
27213;SDS011;14723;55.814;37.460;2022-09-16T09:12:23;20.48;;;11.75;;
27213;SDS011;14723;55.814;37.460;2022-09-16T09:15:36;15.90;;;10.15;;
27213;SDS011;14723;55.814;37.460;2022-09-16T09:18:44;15.38;;;10.00;;
27213;SDS011;14723;55.814;37.460;2022-09-16T09:21:58;13.98;;;9.55;;
27213;SDS011;14723;55.814;37.460;2022-09-16T09:25:12;16.40;;;9.55;;
27213;SDS011;14723;55.814;37.460;2022-09-16T09:28:28;14.13;;;9.98;;
27213;SDS011;14723;55.814;37.460;2022-09-16T09:31:40;14.93;;;8.75;;
27213;SDS011;14723;55.814;37.460;2022-09-16T09:34:51;17.42;;;9.50;;
27213;SDS011;14723;55.814;37.460;2022-09-16T09:41:26;14.02;;;8.85;;
27213;SDS011;14723;55.814;37.460;2022-09-16T09:44:35;15.27;;;9.93;;
27213;SDS011;14723;55.814;37.460;2022-09-16T09:47:43;16.27;;;10.70;;
27213;SDS011;14723;55.814;37.460;2022-09-16T09:50:51;16.55;;;8.98;;
27213;SDS011;14723;55.814;37.460;2022-09-16T09:53:58;13.70;;;9.38;;
27213;SDS011;14723;55.814;37.460;2022-09-16T09:57:09;15.75;;;9.35;;
27213;SDS011;14723;55.814;37.460;2022-09-16T10:00:16;17.55;;;9.07;;
27213;SDS011;14723;55.814;37.460;2022-09-16T10:03:22;16.25;;;9.77;;
27213;SDS011;14723;55.814;37.460;2022-09-16T10:06:28;15.35;;;9.63;;
27213;SDS011;14723;55.814;37.460;2022-09-16T10:09:34;16.77;;;8.95;;
27213;SDS011;14723;55.814;37.460;2022-09-16T10:12:42;13.95;;;9.70;;
27213;SDS011;14723;55.814;37.460;2022-09-16T10:15:48;18.00;;;9.02;;
27213;SDS011;14723;55.814;37.460;2022-09-16T10:18:57;12.98;;;8.85;;
27213;SDS011;14723;55.814;37.460;2022-09-16T10:22:07;11.55;;;8.40;;
27213;SDS011;14723;55.814;37.460;2022-09-16T10:25:20;12.40;;;8.98;;
27213;SDS011;14723;55.814;37.460;2022-09-16T10:28:28;13.85;;;9.30;;
27213;SDS011;14723;55.814;37.460;2022-09-16T10:31:34;13.77;;;8.90;;
27213;SDS011;14723;55.814;37.460;2022-09-16T10:34:40;14.18;;;8.68;;
27213;SDS011;14723;55.814;37.460;2022-09-16T10:37:50;14.65;;;8.63;;
27213;SDS011;14723;55.814;37.460;2022-09-16T10:40:56;13.48;;;8.23;;
27213;SDS011;14723;55.814;37.460;2022-09-16T10:44:11;11.05;;;6.85;;
27213;SDS011;14723;55.814;37.460;2022-09-16T10:47:19;12.77;;;7.47;;
27213;SDS011;14723;55.814;37.460;2022-09-16T10:50:26;10.60;;;7.05;;
27213;SDS011;14723;55.814;37.460;2022-09-16T10:53:31;12.30;;;7.80;;
27213;SDS011;14723;55.814;37.460;2022-09-16T10:56:46;11.95;;;7.32;;
27213;SDS011;14723;55.814;37.460;2022-09-16T11:00:06;15.63;;;7.93;;
27213;SDS011;14723;55.814;37.460;2022-09-16T11:03:28;9.60;;;7.57;;
27213;SDS011;14723;55.814;37.460;2022-09-16T11:06:41;12.30;;;7.35;;
27213;SDS011;14723;55.814;37.460;2022-09-16T11:09:50;11.75;;;7.60;;
27213;SDS011;14723;55.814;37.460;2022-09-16T11:13:08;11.27;;;7.88;;
27213;SDS011;14723;55.814;37.460;2022-09-16T11:16:24;16.90;;;7.93;;
27213;SDS011;14723;55.814;37.460;2022-09-16T11:19:33;14.18;;;9.07;;
27213;SDS011;14723;55.814;37.460;2022-09-16T11:22:42;12.23;;;8.32;;
27213;SDS011;14723;55.814;37.460;2022-09-16T11:25:52;17.42;;;8.50;;
27213;SDS011;14723;55.814;37.460;2022-09-16T11:29:04;11.60;;;8.32;;
27213;SDS011;14723;55.814;37.460;2022-09-16T11:32:18;17.00;;;9.55;;
27213;SDS011;14723;55.814;37.460;2022-09-16T11:35:32;10.98;;;7.70;;
27213;SDS011;14723;55.814;37.460;2022-09-16T11:38:43;20.33;;;11.00;;
27213;SDS011;14723;55.814;37.460;2022-09-16T11:41:54;17.13;;;9.27;;
27213;SDS011;14723;55.814;37.460;2022-09-16T11:45:04;16.33;;;8.55;;
27213;SDS011;14723;55.814;37.460;2022-09-16T11:48:20;14.43;;;9.23;;
27213;SDS011;14723;55.814;37.460;2022-09-16T11:51:33;12.55;;;8.20;;
27213;SDS011;14723;55.814;37.460;2022-09-16T11:54:45;15.20;;;8.70;;
27213;SDS011;14723;55.814;37.460;2022-09-16T11:57:55;12.95;;;8.35;;
27213;SDS011;14723;55.814;37.460;2022-09-16T12:01:02;17.03;;;9.47;;
27213;SDS011;14723;55.814;37.460;2022-09-16T12:04:15;10.95;;;7.85;;
27213;SDS011;14723;55.814;37.460;2022-09-16T12:07:24;13.20;;;7.55;;
27213;SDS011;14723;55.814;37.460;2022-09-16T12:10:31;12.85;;;7.15;;
27213;SDS011;14723;55.814;37.460;2022-09-16T12:13:38;13.20;;;6.80;;
27213;SDS011;14723;55.814;37.460;2022-09-16T12:16:45;13.77;;;7.15;;
27213;SDS011;14723;55.814;37.460;2022-09-16T12:19:56;10.80;;;6.88;;
27213;SDS011;14723;55.814;37.460;2022-09-16T12:23:05;14.05;;;8.02;;
27213;SDS011;14723;55.814;37.460;2022-09-16T12:26:11;15.48;;;8.30;;
27213;SDS011;14723;55.814;37.460;2022-09-16T12:29:18;12.77;;;7.38;;
27213;SDS011;14723;55.814;37.460;2022-09-16T12:32:27;14.25;;;7.82;;
27213;SDS011;14723;55.814;37.460;2022-09-16T12:35:38;16.17;;;8.98;;
27213;SDS011;14723;55.814;37.460;2022-09-16T12:38:44;12.90;;;7.88;;
27213;SDS011;14723;55.814;37.460;2022-09-16T12:45:23;20.90;;;8.65;;
27213;SDS011;14723;55.814;37.460;2022-09-16T12:48:45;13.43;;;8.40;;
27213;SDS011;14723;55.814;37.460;2022-09-16T13:02:14;20.10;;;9.85;;
27213;SDS011;14723;55.814;37.460;2022-09-16T13:05:22;18.38;;;10.00;;
27213;SDS011;14723;55.814;37.460;2022-09-16T13:08:31;16.05;;;10.15;;
27213;SDS011;14723;55.814;37.460;2022-09-16T13:11:37;17.63;;;10.65;;
27213;SDS011;14723;55.814;37.460;2022-09-16T13:15:04;18.52;;;11.20;;
27213;SDS011;14723;55.814;37.460;2022-09-16T13:18:22;24.60;;;11.57;;
27213;SDS011;14723;55.814;37.460;2022-09-16T13:21:28;20.42;;;11.02;;
27213;SDS011;14723;55.814;37.460;2022-09-16T13:24:36;20.67;;;10.27;;
27213;SDS011;14723;55.814;37.460;2022-09-16T13:27:51;22.92;;;11.52;;
27213;SDS011;14723;55.814;37.460;2022-09-16T13:31:07;20.92;;;11.00;;
27213;SDS011;14723;55.814;37.460;2022-09-16T13:34:16;21.17;;;10.77;;
27213;SDS011;14723;55.814;37.460;2022-09-16T13:37:23;22.17;;;11.98;;
27213;SDS011;14723;55.814;37.460;2022-09-16T13:40:29;27.35;;;12.00;;
27213;SDS011;14723;55.814;37.460;2022-09-16T13:43:35;27.05;;;14.68;;
27213;SDS011;14723;55.814;37.460;2022-09-16T13:46:41;25.65;;;12.65;;
27213;SDS011;14723;55.814;37.460;2022-09-16T13:49:49;27.48;;;12.13;;
27213;SDS011;14723;55.814;37.460;2022-09-16T13:52:55;19.42;;;11.48;;
27213;SDS011;14723;55.814;37.460;2022-09-16T13:56:03;21.45;;;11.20;;
27213;SDS011;14723;55.814;37.460;2022-09-16T13:59:17;21.17;;;12.35;;
27213;SDS011;14723;55.814;37.460;2022-09-16T14:02:28;25.67;;;13.55;;
27213;SDS011;14723;55.814;37.460;2022-09-16T14:05:43;19.55;;;12.48;;
27213;SDS011;14723;55.814;37.460;2022-09-16T14:08:53;27.00;;;13.43;;
27213;SDS011;14723;55.814;37.460;2022-09-16T14:12:03;24.63;;;12.02;;
27213;SDS011;14723;55.814;37.460;2022-09-16T14:15:12;22.80;;;12.05;;
27213;SDS011;14723;55.814;37.460;2022-09-16T14:18:18;19.77;;;11.68;;
27213;SDS011;14723;55.814;37.460;2022-09-16T14:21:27;19.45;;;11.43;;
27213;SDS011;14723;55.814;37.460;2022-09-16T14:24:33;20.50;;;11.93;;
27213;SDS011;14723;55.814;37.460;2022-09-16T14:27:38;21.80;;;11.35;;
27213;SDS011;14723;55.814;37.460;2022-09-16T14:30:46;18.58;;;11.45;;
27213;SDS011;14723;55.814;37.460;2022-09-16T14:33:52;21.58;;;12.23;;
27213;SDS011;14723;55.814;37.460;2022-09-16T14:37:01;19.30;;;12.07;;
27213;SDS011;14723;55.814;37.460;2022-09-16T14:40:09;22.02;;;13.68;;
27213;SDS011;14723;55.814;37.460;2022-09-16T14:43:16;20.00;;;11.65;;
27213;SDS011;14723;55.814;37.460;2022-09-16T14:46:22;23.30;;;13.00;;
27213;SDS011;14723;55.814;37.460;2022-09-16T14:49:27;17.02;;;10.15;;
27213;SDS011;14723;55.814;37.460;2022-09-16T14:52:36;15.35;;;9.32;;
27213;SDS011;14723;55.814;37.460;2022-09-16T14:55:46;13.95;;;9.00;;
27213;SDS011;14723;55.814;37.460;2022-09-16T14:58:52;16.15;;;8.55;;
27213;SDS011;14723;55.814;37.460;2022-09-16T15:01:58;13.05;;;8.57;;
27213;SDS011;14723;55.814;37.460;2022-09-16T15:05:09;12.80;;;9.05;;
27213;SDS011;14723;55.814;37.460;2022-09-16T15:08:20;12.32;;;7.72;;
27213;SDS011;14723;55.814;37.460;2022-09-16T15:11:28;12.82;;;8.00;;
27213;SDS011;14723;55.814;37.460;2022-09-16T15:14:49;12.73;;;7.95;;
27213;SDS011;14723;55.814;37.460;2022-09-16T15:17:56;14.02;;;8.43;;
27213;SDS011;14723;55.814;37.460;2022-09-16T15:21:03;15.40;;;9.20;;
27213;SDS011;14723;55.814;37.460;2022-09-16T15:24:16;13.50;;;8.60;;
27213;SDS011;14723;55.814;37.460;2022-09-16T15:27:25;13.00;;;8.60;;
27213;SDS011;14723;55.814;37.460;2022-09-16T15:30:30;15.70;;;8.93;;
27213;SDS011;14723;55.814;37.460;2022-09-16T15:33:38;14.98;;;8.57;;
27213;SDS011;14723;55.814;37.460;2022-09-16T15:36:45;13.45;;;8.98;;
27213;SDS011;14723;55.814;37.460;2022-09-16T15:39:53;13.18;;;8.52;;
27213;SDS011;14723;55.814;37.460;2022-09-16T15:43:00;15.25;;;8.88;;
27213;SDS011;14723;55.814;37.460;2022-09-16T15:46:11;14.52;;;9.52;;
27213;SDS011;14723;55.814;37.460;2022-09-16T15:49:18;13.30;;;8.48;;
27213;SDS011;14723;55.814;37.460;2022-09-16T15:52:26;15.40;;;7.78;;
27213;SDS011;14723;55.814;37.460;2022-09-16T15:55:35;14.88;;;8.43;;
27213;SDS011;14723;55.814;37.460;2022-09-16T15:58:41;11.30;;;8.05;;
27213;SDS011;14723;55.814;37.460;2022-09-16T16:01:49;14.85;;;8.32;;
27213;SDS011;14723;55.814;37.460;2022-09-16T16:05:03;14.20;;;8.73;;
27213;SDS011;14723;55.814;37.460;2022-09-16T16:08:09;12.20;;;7.38;;
27213;SDS011;14723;55.814;37.460;2022-09-16T16:11:17;16.25;;;9.40;;
27213;SDS011;14723;55.814;37.460;2022-09-16T16:14:23;19.90;;;12.20;;
27213;SDS011;14723;55.814;37.460;2022-09-16T16:17:32;25.77;;;10.63;;
27213;SDS011;14723;55.814;37.460;2022-09-16T16:20:37;11.98;;;8.18;;
27213;SDS011;14723;55.814;37.460;2022-09-16T16:23:42;11.73;;;7.47;;
27213;SDS011;14723;55.814;37.460;2022-09-16T16:26:50;11.77;;;7.80;;
27213;SDS011;14723;55.814;37.460;2022-09-16T16:29:57;12.80;;;8.25;;
27213;SDS011;14723;55.814;37.460;2022-09-16T16:33:05;13.30;;;8.50;;
27213;SDS011;14723;55.814;37.460;2022-09-16T16:36:11;11.30;;;7.90;;
27213;SDS011;14723;55.814;37.460;2022-09-16T16:39:17;13.40;;;8.00;;
27213;SDS011;14723;55.814;37.460;2022-09-16T16:42:27;9.25;;;7.20;;
27213;SDS011;14723;55.814;37.460;2022-09-16T16:45:32;11.65;;;8.45;;
27213;SDS011;14723;55.814;37.460;2022-09-16T16:48:37;17.85;;;11.45;;
27213;SDS011;14723;55.814;37.460;2022-09-16T16:51:43;16.80;;;11.15;;
27213;SDS011;14723;55.814;37.460;2022-09-16T16:54:48;14.80;;;10.02;;
27213;SDS011;14723;55.814;37.460;2022-09-16T16:57:56;13.23;;;9.73;;
27213;SDS011;14723;55.814;37.460;2022-09-16T17:01:07;17.52;;;9.60;;
27213;SDS011;14723;55.814;37.460;2022-09-16T17:04:13;14.52;;;9.50;;
27213;SDS011;14723;55.814;37.460;2022-09-16T17:07:18;15.10;;;9.93;;
27213;SDS011;14723;55.814;37.460;2022-09-16T17:10:28;14.43;;;10.38;;
27213;SDS011;14723;55.814;37.460;2022-09-16T17:13:36;13.43;;;9.60;;
27213;SDS011;14723;55.814;37.460;2022-09-16T17:16:42;14.05;;;9.73;;
27213;SDS011;14723;55.814;37.460;2022-09-16T17:19:49;14.57;;;10.18;;
27213;SDS011;14723;55.814;37.460;2022-09-16T17:22:54;14.60;;;10.25;;
27213;SDS011;14723;55.814;37.460;2022-09-16T17:25:59;12.70;;;9.60;;
27213;SDS011;14723;55.814;37.460;2022-09-16T17:29:08;15.88;;;10.70;;
27213;SDS011;14723;55.814;37.460;2022-09-16T17:32:16;14.13;;;10.65;;
27213;SDS011;14723;55.814;37.460;2022-09-16T17:35:21;15.45;;;11.10;;
27213;SDS011;14723;55.814;37.460;2022-09-16T17:38:27;17.50;;;12.27;;
27213;SDS011;14723;55.814;37.460;2022-09-16T17:41:32;15.68;;;11.68;;
27213;SDS011;14723;55.814;37.460;2022-09-16T17:44:40;15.82;;;11.25;;
27213;SDS011;14723;55.814;37.460;2022-09-16T17:47:46;16.55;;;10.77;;
27213;SDS011;14723;55.814;37.460;2022-09-16T17:50:52;18.40;;;11.63;;
27213;SDS011;14723;55.814;37.460;2022-09-16T17:53:57;17.50;;;11.05;;
27213;SDS011;14723;55.814;37.460;2022-09-16T17:57:02;15.35;;;10.85;;
27213;SDS011;14723;55.814;37.460;2022-09-16T18:00:11;14.13;;;10.27;;
27213;SDS011;14723;55.814;37.460;2022-09-16T18:03:16;15.00;;;11.23;;
27213;SDS011;14723;55.814;37.460;2022-09-16T18:06:22;15.95;;;11.43;;
27213;SDS011;14723;55.814;37.460;2022-09-16T18:09:29;15.85;;;11.25;;
27213;SDS011;14723;55.814;37.460;2022-09-16T18:12:34;14.38;;;10.43;;
27213;SDS011;14723;55.814;37.460;2022-09-16T18:15:42;17.15;;;11.65;;
27213;SDS011;14723;55.814;37.460;2022-09-16T18:18:49;16.23;;;11.02;;
27213;SDS011;14723;55.814;37.460;2022-09-16T18:21:54;17.98;;;10.20;;
27213;SDS011;14723;55.814;37.460;2022-09-16T18:24:59;15.38;;;11.45;;
27213;SDS011;14723;55.814;37.460;2022-09-16T18:28:05;16.73;;;11.70;;
27213;SDS011;14723;55.814;37.460;2022-09-16T18:31:14;18.90;;;13.07;;
27213;SDS011;14723;55.814;37.460;2022-09-16T18:37:24;18.80;;;11.88;;
27213;SDS011;14723;55.814;37.460;2022-09-16T18:40:29;18.42;;;12.15;;
27213;SDS011;14723;55.814;37.460;2022-09-16T18:43:41;19.45;;;12.63;;
27213;SDS011;14723;55.814;37.460;2022-09-16T18:46:49;21.30;;;14.05;;